createdAt,value
2023-07-18T00:02:19.977Z,99645.53
2023-07-18T00:04:48.005Z,99630.84
2023-07-18T00:07:15.850Z,99640.19
2023-07-18T00:09:43.509Z,99627.91
2023-07-18T00:12:11.795Z,99642.44
2023-07-18T00:14:39.456Z,99643.41
2023-07-18T00:17:08.537Z,99647.88
2023-07-18T00:19:36.174Z,99643.09
2023-07-18T00:22:03.875Z,99651.66
2023-07-18T00:24:31.811Z,99653.28
2023-07-18T00:26:59.490Z,99659.44
2023-07-18T00:29:27.204Z,99667.00
2023-07-18T00:31:54.972Z,99661.69
2023-07-18T00:34:24.108Z,99656.22
2023-07-18T00:36:56.192Z,99654.09
2023-07-18T00:39:24.560Z,99665.06
2023-07-18T00:41:53.198Z,99655.56
2023-07-18T00:44:20.939Z,99655.19
2023-07-18T00:46:48.819Z,99657.00
2023-07-18T00:49:16.886Z,99664.03
2023-07-18T00:51:46.099Z,99662.59
2023-07-18T00:54:13.838Z,99656.63
2023-07-18T00:56:41.562Z,99652.22
2023-07-18T00:59:09.937Z,99655.91
2023-07-18T01:01:37.741Z,99650.13
2023-07-18T01:04:06.336Z,99633.00
2023-07-18T01:06:34.693Z,99648.69
2023-07-18T01:09:03.949Z,99649.00
2023-07-18T01:11:31.557Z,99641.31
2023-07-18T01:13:59.182Z,99645.69
2023-07-18T01:16:27.151Z,99640.22
2023-07-18T01:18:54.961Z,99646.03
2023-07-18T01:21:24.839Z,99643.81
2023-07-18T01:23:52.479Z,99637.34
2023-07-18T01:26:20.092Z,99641.06
2023-07-18T01:28:47.705Z,99639.50
2023-07-18T01:31:15.502Z,99651.41
2023-07-18T01:33:45.100Z,99638.19
2023-07-18T01:36:12.804Z,99636.28
2023-07-18T01:38:41.769Z,99633.19
2023-07-18T01:41:09.500Z,99632.09
2023-07-18T01:43:37.249Z,99634.59
2023-07-18T01:46:04.887Z,99634.66
2023-07-18T01:48:33.417Z,99627.03
2023-07-18T01:51:01.079Z,99621.19
2023-07-18T01:53:28.899Z,99618.81
2023-07-18T01:56:00.531Z,99621.28
2023-07-18T01:58:28.141Z,99621.72
2023-07-18T02:00:55.828Z,99616.84
2023-07-18T02:03:23.580Z,99616.09
2023-07-18T02:05:51.268Z,99612.84
2023-07-18T02:08:18.884Z,99621.94
2023-07-18T02:10:46.491Z,99620.03
2023-07-18T02:13:15.452Z,99607.63
2023-07-18T02:15:43.125Z,99625.63
2023-07-18T02:18:10.794Z,99620.31
2023-07-18T02:20:38.494Z,99616.97
2023-07-18T02:23:06.189Z,99621.31
2023-07-18T02:25:34.059Z,99622.53
2023-07-18T02:28:01.707Z,99618.84
2023-07-18T02:30:30.727Z,99614.31
2023-07-18T02:32:58.849Z,99615.75
2023-07-18T02:35:27.424Z,99611.22
2023-07-18T02:37:55.449Z,99620.22
2023-07-18T02:40:23.129Z,99624.84
2023-07-18T02:42:50.807Z,99620.03
2023-07-18T02:45:18.430Z,99622.09
2023-07-18T02:47:47.486Z,99623.13
2023-07-18T02:50:15.203Z,99618.06
2023-07-18T02:52:42.855Z,99614.22
2023-07-18T02:55:10.869Z,99613.88
2023-07-18T02:57:38.759Z,99618.59
2023-07-18T03:00:20.829Z,99622.44
2023-07-18T03:02:52.690Z,99618.69
2023-07-18T03:05:23.114Z,99606.59
2023-07-18T03:07:50.759Z,99624.84
2023-07-18T03:10:18.845Z,99617.19
2023-07-18T03:12:47.711Z,99625.94
2023-07-18T03:15:17.277Z,99622.78
2023-07-18T03:17:45.049Z,99620.63
2023-07-18T03:20:18.265Z,99626.25
2023-07-18T03:22:46.604Z,99625.06
2023-07-18T03:25:14.350Z,99631.94
2023-07-18T03:27:42.182Z,99621.00
2023-07-18T03:30:11.833Z,99622.34
2023-07-18T03:32:41.066Z,99620.56
2023-07-18T03:35:10.260Z,99623.94
2023-07-18T03:37:39.431Z,99622.44
2023-07-18T03:40:08.286Z,99605.13
2023-07-18T03:42:36.063Z,99620.25
2023-07-18T03:45:04.114Z,99621.19
2023-07-18T03:47:32.499Z,99609.34
2023-07-18T03:50:00.220Z,99617.78
2023-07-18T03:52:27.826Z,99615.59
2023-07-18T03:54:57.099Z,99608.16
2023-07-18T03:57:24.787Z,99608.16
2023-07-18T03:59:53.026Z,99608.22
2023-07-18T04:02:20.659Z,99616.28
2023-07-18T04:04:48.476Z,99614.22
2023-07-18T04:07:16.105Z,99611.41
2023-07-18T04:09:45.730Z,99612.28
2023-07-18T04:12:17.816Z,99604.59
2023-07-18T04:14:45.438Z,99602.34
2023-07-18T04:17:13.077Z,99601.94
2023-07-18T04:19:40.790Z,99598.34
2023-07-18T04:22:08.471Z,99600.03
2023-07-18T04:24:36.361Z,99599.53
2023-07-18T04:27:04.236Z,99598.75
2023-07-18T04:29:34.160Z,99601.19
2023-07-18T04:32:01.902Z,99602.97
2023-07-18T04:34:29.661Z,99605.28
2023-07-18T04:36:57.358Z,99599.81
2023-07-18T04:39:25.368Z,99598.44
2023-07-18T04:41:55.645Z,99590.91
2023-07-18T04:44:23.785Z,99594.00
2023-07-18T04:46:54.404Z,99597.78
2023-07-18T04:49:23.378Z,99590.06
2023-07-18T04:51:52.376Z,99602.31
2023-07-18T04:54:20.196Z,99600.16
2023-07-18T04:56:48.024Z,99598.03
2023-07-18T04:59:15.632Z,99598.94
2023-07-18T05:01:43.294Z,99596.47
2023-07-18T05:04:12.394Z,99593.63
2023-07-18T05:06:40.075Z,99596.03
2023-07-18T05:09:07.791Z,99593.34
2023-07-18T05:11:35.786Z,99585.19
2023-07-18T05:14:03.532Z,99589.56
2023-07-18T05:16:31.241Z,99585.69
2023-07-18T05:18:58.947Z,99590.16
2023-07-18T05:21:27.925Z,99586.38
2023-07-18T05:23:55.541Z,99584.03
2023-07-18T05:26:23.436Z,99585.09
2023-07-18T05:28:52.863Z,99592.81
2023-07-18T05:31:20.834Z,99591.47
2023-07-18T05:33:48.653Z,99587.66
2023-07-18T05:36:17.370Z,99587.97
2023-07-18T05:38:47.069Z,99590.34
2023-07-18T05:41:14.980Z,99588.44
2023-07-18T05:43:42.808Z,99590.25
2023-07-18T05:46:11.741Z,99604.22
2023-07-18T05:48:39.482Z,99595.38
2023-07-18T05:51:07.158Z,99589.59
2023-07-18T05:53:34.847Z,99593.41
2023-07-18T05:56:03.884Z,99589.88
2023-07-18T05:58:31.602Z,99591.38
2023-07-18T06:00:59.348Z,99589.06
2023-07-18T06:03:27.207Z,99586.19
2023-07-18T06:05:56.003Z,99587.31
2023-07-18T06:08:23.832Z,99574.53
2023-07-18T06:10:57.556Z,99573.09
2023-07-18T06:13:27.969Z,99571.13
2023-07-18T06:15:55.672Z,99555.28
2023-07-18T06:18:23.340Z,99556.69
2023-07-18T06:20:51.121Z,99561.31
2023-07-18T06:23:19.006Z,99565.47
2023-07-18T06:25:46.773Z,99555.66
2023-07-18T06:28:14.431Z,99561.84
2023-07-18T06:30:43.460Z,99556.28
2023-07-18T06:33:11.391Z,99554.47
2023-07-18T06:35:39.364Z,99552.56
2023-07-18T06:38:07.100Z,99554.59
2023-07-18T06:40:34.737Z,99555.66
2023-07-18T06:43:02.379Z,99561.19
2023-07-18T06:45:30.828Z,99563.03
2023-07-18T06:47:59.907Z,99561.75
2023-07-18T06:50:27.643Z,99558.88
2023-07-18T06:52:55.299Z,99560.75
2023-07-18T06:55:23.400Z,99562.88
2023-07-18T06:57:51.128Z,99551.63
2023-07-18T07:00:20.946Z,99557.28
2023-07-18T07:02:48.729Z,99561.31
2023-07-18T07:05:18.014Z,99556.38
2023-07-18T07:07:46.326Z,99565.56
2023-07-18T07:10:14.280Z,99559.41
2023-07-18T07:12:41.916Z,99553.44
2023-07-18T07:15:10.110Z,99551.91
2023-07-18T07:17:37.866Z,99556.66
2023-07-18T07:20:06.587Z,99545.97
2023-07-18T07:22:35.867Z,99540.91
2023-07-18T07:25:04.206Z,99541.63
2023-07-18T07:27:31.893Z,99540.22
2023-07-18T07:29:59.592Z,99536.41
2023-07-18T07:32:27.365Z,99521.44
2023-07-18T07:34:55.003Z,99520.16
2023-07-18T07:37:22.658Z,99528.81
2023-07-18T07:39:51.824Z,99523.94
2023-07-18T07:42:19.498Z,99522.03
2023-07-18T07:44:47.337Z,99530.16
2023-07-18T07:47:14.984Z,99535.16
2023-07-18T07:49:42.622Z,99524.25
2023-07-18T07:52:10.270Z,99512.25
2023-07-18T07:54:37.939Z,99514.19
2023-07-18T07:57:07.821Z,99509.31
2023-07-18T07:59:35.460Z,99506.66
2023-07-18T08:02:03.162Z,99500.75
2023-07-18T08:04:31.011Z,99511.09
2023-07-18T08:06:58.719Z,99503.34
2023-07-18T08:09:26.403Z,99490.19
2023-07-18T08:11:54.213Z,99485.66
2023-07-18T08:14:23.893Z,99492.88
2023-07-18T08:16:51.599Z,99491.16
2023-07-18T08:19:19.300Z,99489.19
2023-07-18T08:21:47.007Z,99493.91
2023-07-18T08:24:14.755Z,99496.72
2023-07-18T08:26:42.395Z,99482.09
2023-07-18T08:29:10.192Z,99488.13
2023-07-18T08:31:39.280Z,99482.47
2023-07-18T08:34:07.253Z,99477.00
2023-07-18T08:36:36.961Z,99476.22
2023-07-18T08:39:10.937Z,99475.47
2023-07-18T08:41:39.801Z,99465.66
2023-07-18T08:44:08.566Z,99465.16
2023-07-18T08:46:36.403Z,99468.19
2023-07-18T08:49:06.323Z,99457.66
2023-07-18T08:51:34.111Z,99446.38
2023-07-18T08:54:01.845Z,99456.66
2023-07-18T08:56:29.646Z,99448.25
2023-07-18T08:58:58.664Z,99434.38
2023-07-18T09:01:26.478Z,99426.81
2023-07-18T09:03:54.233Z,99418.38
2023-07-18T09:06:24.296Z,99410.13
2023-07-18T09:08:52.185Z,99389.16
2023-07-18T09:11:21.428Z,99395.09
2023-07-18T09:13:50.184Z,99385.28
2023-07-18T09:16:19.413Z,99388.63
2023-07-18T09:18:50.739Z,99388.41
2023-07-18T09:21:19.406Z,99390.38
2023-07-18T09:23:49.304Z,99391.00
2023-07-18T09:26:19.448Z,99365.94
2023-07-18T09:28:47.567Z,99365.03
2023-07-18T09:31:20.179Z,99361.25
2023-07-18T09:33:49.096Z,99362.19
2023-07-18T09:36:18.274Z,99363.69
2023-07-18T09:38:48.174Z,99366.09
2023-07-18T09:41:17.553Z,99365.03
2023-07-18T09:43:45.439Z,99374.00
2023-07-18T09:46:14.581Z,99379.25
2023-07-18T09:48:45.277Z,99374.88
2023-07-18T09:51:15.841Z,99383.50
2023-07-18T09:53:48.049Z,99393.25
2023-07-18T09:56:16.827Z,99404.53
2023-07-18T09:58:45.517Z,99417.09
2023-07-18T10:01:14.351Z,99422.63
2023-07-18T10:03:42.372Z,99433.03
2023-07-18T10:06:14.262Z,99431.97
2023-07-18T10:08:45.855Z,99423.16
2023-07-18T10:11:15.140Z,99427.13
2023-07-18T10:13:43.919Z,99412.94
2023-07-18T10:16:19.238Z,99417.16
2023-07-18T10:18:47.425Z,99426.34
2023-07-18T10:21:17.341Z,99422.31
2023-07-18T10:23:45.120Z,99399.72
2023-07-18T10:26:15.891Z,99375.84
2023-07-18T10:28:44.919Z,99364.13
2023-07-18T10:31:28.337Z,99348.00
2023-07-18T10:34:07.376Z,99358.13
2023-07-18T10:36:36.218Z,99363.00
2023-07-18T10:39:09.205Z,99352.78
2023-07-18T10:41:38.323Z,99336.72
2023-07-18T10:44:06.124Z,99322.13
2023-07-18T10:46:37.661Z,99317.66
2023-07-18T10:49:05.417Z,99311.72
2023-07-18T10:51:33.321Z,99305.69
2023-07-18T10:54:01.125Z,99298.53
2023-07-18T10:56:29.278Z,99303.47
2023-07-18T10:58:58.624Z,99305.38
2023-07-18T11:01:27.576Z,99313.38
2023-07-18T11:03:57.326Z,99308.72
2023-07-18T11:06:25.254Z,99308.06
2023-07-18T11:08:52.933Z,99298.94
2023-07-18T11:11:21.035Z,99285.19
2023-07-18T11:13:48.963Z,99276.84
2023-07-18T11:16:18.840Z,99271.78
2023-07-18T11:18:49.705Z,99261.28
2023-07-18T11:21:19.687Z,99249.66
2023-07-18T11:23:48.668Z,99257.75
2023-07-18T11:26:17.884Z,99266.34
2023-07-18T11:28:47.192Z,99261.66
2023-07-18T11:31:40.285Z,99260.41
2023-07-18T11:34:10.267Z,99260.06
2023-07-18T11:36:38.924Z,99261.59
2023-07-18T11:39:20.719Z,99270.47
2023-07-18T11:41:49.176Z,99266.56
2023-07-18T11:44:25.939Z,99258.72
2023-07-18T11:46:55.859Z,99263.31
2023-07-18T11:49:34.321Z,99239.97
2023-07-18T11:52:02.664Z,99242.34
2023-07-18T11:54:30.394Z,99242.16
2023-07-18T11:56:58.522Z,99230.66
2023-07-18T11:59:26.152Z,99227.63
2023-07-18T12:01:55.167Z,99230.19
2023-07-18T12:04:22.830Z,99218.75
2023-07-18T12:06:51.175Z,99210.13
2023-07-18T12:09:18.796Z,99213.75
2023-07-18T12:11:46.450Z,99210.19
2023-07-18T12:14:14.276Z,99207.97
2023-07-18T12:16:41.995Z,99215.22
2023-07-18T12:19:11.111Z,99203.88
2023-07-18T12:21:38.800Z,99206.75
2023-07-18T12:24:06.952Z,99205.63
2023-07-18T12:26:34.830Z,99182.81
2023-07-18T12:29:04.504Z,99175.72
2023-07-18T12:31:34.572Z,99166.38
2023-07-18T12:34:02.307Z,99160.66
2023-07-18T12:36:31.307Z,99151.34
2023-07-18T12:38:58.946Z,99155.75
2023-07-18T12:41:26.623Z,99156.94
2023-07-18T12:43:54.657Z,99146.63
2023-07-18T12:46:27.791Z,99141.72
2023-07-18T12:49:03.607Z,99136.41
2023-07-18T12:51:33.142Z,99136.41
2023-07-18T12:54:00.920Z,99129.78
2023-07-18T12:56:30.691Z,99123.22
2023-07-18T12:58:59.087Z,99119.88
2023-07-18T13:01:27.077Z,99125.19
2023-07-18T13:03:54.872Z,99120.09
2023-07-18T13:06:22.934Z,99113.97
2023-07-18T13:08:52.796Z,99107.03
2023-07-18T13:11:20.507Z,99105.28
2023-07-18T13:13:48.162Z,99095.06
2023-07-18T13:16:15.867Z,99091.69
2023-07-18T13:18:43.549Z,99080.97
2023-07-18T13:21:11.239Z,99079.88
2023-07-18T13:23:39.010Z,99081.72
2023-07-18T13:26:10.167Z,99077.16
2023-07-18T13:28:37.860Z,99079.59
2023-07-18T13:31:05.527Z,99076.13
2023-07-18T13:33:33.198Z,99071.16
2023-07-18T13:36:01.128Z,99078.59
2023-07-18T13:38:28.817Z,99072.19
2023-07-18T13:40:56.630Z,99075.28
2023-07-18T13:43:26.130Z,99072.16
2023-07-18T13:45:55.234Z,99067.94
2023-07-18T13:48:23.285Z,99068.59
2023-07-18T13:50:51.003Z,99064.84
2023-07-18T13:53:18.662Z,99070.13
2023-07-18T13:55:46.423Z,99056.75
2023-07-18T13:58:14.131Z,99054.94
2023-07-18T14:00:43.332Z,99055.47
2023-07-18T14:03:23.502Z,99067.03
2023-07-18T14:05:58.692Z,99057.03
2023-07-18T14:08:27.260Z,99055.59
2023-07-18T14:10:54.986Z,99060.38
2023-07-18T14:13:22.671Z,99062.22
2023-07-18T14:15:51.846Z,99059.97
2023-07-18T14:18:19.807Z,99058.69
2023-07-18T14:20:47.409Z,99069.00
2023-07-18T14:23:15.216Z,99054.91
2023-07-18T14:25:42.949Z,99051.19
2023-07-18T14:28:10.663Z,99042.53
2023-07-18T14:30:38.423Z,99045.13
2023-07-18T14:33:07.553Z,99048.34
2023-07-18T14:35:35.267Z,99040.81
2023-07-18T14:38:02.932Z,99035.72
2023-07-18T14:40:30.657Z,99028.13
2023-07-18T14:42:58.416Z,99022.28
2023-07-18T14:45:26.098Z,99022.75
2023-07-18T14:47:53.826Z,99016.78
2023-07-18T14:50:24.248Z,99010.22
2023-07-18T14:52:51.896Z,99008.16
2023-07-18T14:55:21.139Z,99003.84
2023-07-18T14:57:49.148Z,98994.69
2023-07-18T15:00:19.609Z,98997.41
2023-07-18T15:02:48.981Z,98985.16
2023-07-18T15:05:17.258Z,98981.25
2023-07-18T15:07:49.164Z,98984.97
2023-07-18T15:10:17.101Z,98980.94
2023-07-18T15:12:46.344Z,98979.59
2023-07-18T15:15:14.704Z,98970.19
2023-07-18T15:17:43.960Z,98968.84
2023-07-18T15:20:13.386Z,98960.91
2023-07-18T15:22:41.784Z,98957.66
2023-07-18T15:25:11.894Z,98953.63
2023-07-18T15:27:41.081Z,98944.91
2023-07-18T15:30:10.541Z,98946.28
2023-07-18T15:32:39.937Z,98941.19
2023-07-18T15:35:08.785Z,98945.91
2023-07-18T15:37:37.246Z,98937.91
2023-07-18T15:40:05.986Z,98931.00
2023-07-18T15:42:35.574Z,98929.84
2023-07-18T15:45:03.694Z,98919.19
2023-07-18T15:47:31.351Z,98925.09
2023-07-18T15:50:01.014Z,98914.16
2023-07-18T15:52:28.843Z,98911.69
2023-07-18T15:54:56.465Z,98901.63
2023-07-18T15:57:24.253Z,98906.66
2023-07-18T15:59:53.240Z,98905.72
2023-07-18T16:02:20.942Z,98899.34
2023-07-18T16:04:48.669Z,98891.78
2023-07-18T16:07:16.335Z,98889.44
2023-07-18T16:09:51.523Z,98890.19
2023-07-18T16:12:19.860Z,98885.78
2023-07-18T16:14:47.882Z,98881.31
2023-07-18T16:17:17.015Z,98870.19
2023-07-18T16:19:47.968Z,98883.09
2023-07-18T16:22:17.596Z,98879.94
2023-07-18T16:24:46.900Z,98868.47
2023-07-18T16:27:15.117Z,98858.91
2023-07-18T16:29:43.157Z,98857.47
2023-07-18T16:32:10.804Z,98853.38
2023-07-18T16:34:39.864Z,98851.81
2023-07-18T16:37:07.582Z,98856.13
2023-07-18T16:39:35.327Z,98845.47
2023-07-18T16:42:13.614Z,98848.81
2023-07-18T16:44:50.706Z,98851.84
2023-07-18T16:47:18.428Z,98849.78
2023-07-18T16:49:47.573Z,98859.50
2023-07-18T16:52:15.272Z,98854.84
2023-07-18T16:54:42.970Z,98851.72
2023-07-18T16:57:11.281Z,98852.88
2023-07-18T16:59:38.911Z,98844.09
2023-07-18T17:02:06.981Z,98850.25
2023-07-18T17:04:34.664Z,98848.38
2023-07-18T17:07:03.769Z,98843.31
2023-07-18T17:09:31.396Z,98837.38
2023-07-18T17:11:59.049Z,98839.50
2023-07-18T17:14:26.717Z,98828.84
2023-07-18T17:16:54.414Z,98833.25
2023-07-18T17:19:22.042Z,98826.41
2023-07-18T17:21:49.718Z,98810.63
2023-07-18T17:24:18.854Z,98813.06
2023-07-18T17:26:46.919Z,98815.69
2023-07-18T17:29:14.599Z,98810.63
2023-07-18T17:31:43.232Z,98807.34
2023-07-18T17:34:10.919Z,98800.50
2023-07-18T17:36:38.683Z,98793.22
2023-07-18T17:39:08.833Z,98803.69
2023-07-18T17:41:38.556Z,98795.34
2023-07-18T17:44:06.496Z,98804.91
2023-07-18T17:46:34.220Z,98791.72
2023-07-18T17:49:02.397Z,98803.34
2023-07-18T17:51:30.184Z,98805.59
2023-07-18T17:53:57.817Z,98802.31
2023-07-18T17:56:25.640Z,98798.44
2023-07-18T17:58:54.670Z,98806.44
2023-07-18T18:01:22.550Z,98805.16
2023-07-18T18:03:50.754Z,98794.22
2023-07-18T18:06:18.493Z,98793.66
2023-07-18T18:08:46.248Z,98800.88
2023-07-18T18:11:13.966Z,98802.63
2023-07-18T18:13:41.613Z,98800.81
2023-07-18T18:16:10.844Z,98807.91
2023-07-18T18:18:38.475Z,98803.25
2023-07-18T18:21:06.305Z,98800.97
2023-07-18T18:23:39.842Z,98796.06
2023-07-18T18:26:08.788Z,98795.38
2023-07-18T18:28:36.429Z,98800.50
2023-07-18T18:31:04.211Z,98797.34
2023-07-18T18:33:33.613Z,98805.75
2023-07-18T18:36:01.583Z,98812.16
2023-07-18T18:38:29.323Z,98805.56
2023-07-18T18:40:57.285Z,98812.00
2023-07-18T18:43:25.049Z,98803.53
2023-07-18T18:45:52.948Z,98802.84
2023-07-18T18:48:20.782Z,98796.19
2023-07-18T18:50:49.890Z,98798.75
2023-07-18T18:53:18.183Z,98803.72
2023-07-18T18:55:45.976Z,98793.59
2023-07-18T18:58:14.555Z,98796.03
2023-07-18T19:00:42.435Z,98798.22
2023-07-18T19:03:10.272Z,98791.31
2023-07-18T19:05:38.545Z,98764.34
2023-07-18T19:08:08.838Z,98788.81
2023-07-18T19:10:38.254Z,98793.03
2023-07-18T19:13:08.039Z,98794.06
2023-07-18T19:15:35.704Z,98782.97
2023-07-18T19:18:04.222Z,98798.31
2023-07-18T19:20:32.051Z,98803.03
2023-07-18T19:23:00.693Z,98808.09
2023-07-18T19:25:30.289Z,98809.59
2023-07-18T19:27:58.542Z,98808.41
2023-07-18T19:30:27.010Z,98816.31
2023-07-18T19:32:55.107Z,98801.63
2023-07-18T19:35:22.816Z,98812.59
2023-07-18T19:37:50.987Z,98814.75
2023-07-18T19:40:18.782Z,98809.69
2023-07-18T19:42:47.846Z,98804.63
2023-07-18T19:45:16.286Z,98796.53
2023-07-18T19:47:45.727Z,98790.75
2023-07-18T19:50:13.431Z,98802.34
2023-07-18T19:52:41.287Z,98795.56
2023-07-18T19:55:10.791Z,98800.22
2023-07-18T19:57:38.459Z,98796.00
2023-07-18T20:00:09.181Z,98801.53
2023-07-18T20:02:36.919Z,98794.41
2023-07-18T20:05:05.142Z,98803.00
2023-07-18T20:07:32.922Z,98806.38
2023-07-18T20:10:00.706Z,98810.53
2023-07-18T20:12:28.284Z,98815.66
2023-07-18T20:14:55.837Z,98816.06
2023-07-18T20:17:24.944Z,98811.09
2023-07-18T20:19:53.000Z,98811.09
2023-07-18T20:22:23.883Z,98802.63
2023-07-18T20:24:51.753Z,98800.78
2023-07-18T20:27:19.613Z,98799.56
2023-07-18T20:29:47.393Z,98785.75
2023-07-18T20:32:15.208Z,98791.50
2023-07-18T20:34:44.394Z,98803.09
2023-07-18T20:37:12.192Z,98797.19
2023-07-18T20:39:40.020Z,98789.59
2023-07-18T20:42:08.189Z,98798.13
2023-07-18T20:44:35.848Z,98801.13
2023-07-18T20:47:03.506Z,98802.19
2023-07-18T20:49:31.109Z,98802.41
2023-07-18T20:52:00.077Z,98792.44
2023-07-18T20:54:29.833Z,98786.91
2023-07-18T20:56:57.538Z,98784.91
2023-07-18T20:59:25.207Z,98784.22
2023-07-18T21:01:53.156Z,98779.00
2023-07-18T21:04:21.025Z,98782.00
2023-07-18T21:06:48.925Z,98785.81
2023-07-18T21:09:17.945Z,98787.22
2023-07-18T21:11:45.581Z,98793.16
2023-07-18T21:14:13.381Z,98791.47
2023-07-18T21:16:41.382Z,98807.59
2023-07-18T21:19:09.308Z,98800.44
2023-07-18T21:21:37.064Z,98794.31
2023-07-18T21:24:05.049Z,98794.13
2023-07-18T21:26:34.075Z,98790.13
2023-07-18T21:29:05.312Z,98793.81
2023-07-18T21:31:33.802Z,98790.28
2023-07-18T21:34:01.597Z,98788.28
2023-07-18T21:36:29.211Z,98788.97
2023-07-18T21:38:57.123Z,98792.06
2023-07-18T21:41:24.921Z,98797.28
2023-07-18T21:43:53.982Z,98795.59
2023-07-18T21:46:21.921Z,98800.28
2023-07-18T21:48:49.672Z,98795.91
2023-07-18T21:51:17.889Z,98801.47
2023-07-18T21:53:45.749Z,98804.47
2023-07-18T21:56:13.510Z,98805.88
2023-07-18T21:58:41.514Z,98784.13
2023-07-18T22:01:13.344Z,98785.88
2023-07-18T22:03:41.456Z,98786.03
2023-07-18T22:06:09.293Z,98773.44
2023-07-18T22:08:37.072Z,98783.34
2023-07-18T22:11:04.718Z,98795.94
2023-07-18T22:13:33.737Z,98794.25
2023-07-18T22:16:01.723Z,98790.56
2023-07-18T22:18:33.298Z,98784.50
2023-07-18T22:21:01.725Z,98794.72
2023-07-18T22:23:29.687Z,98787.00
2023-07-18T22:26:12.897Z,98777.16
2023-07-18T22:28:42.511Z,98781.72
2023-07-18T22:31:11.980Z,98787.34
2023-07-18T22:33:41.578Z,98776.47
2023-07-18T22:36:09.442Z,98773.72
2023-07-18T22:38:37.221Z,98759.81
2023-07-18T22:41:05.214Z,98761.22
2023-07-18T22:43:32.980Z,98769.84
2023-07-18T22:46:00.663Z,98762.31
2023-07-18T22:48:28.598Z,98761.06
2023-07-18T22:50:58.868Z,98756.94
2023-07-18T22:53:26.720Z,98762.09
2023-07-18T22:55:54.732Z,98753.44
2023-07-18T22:58:22.607Z,98763.28
2023-07-18T23:00:50.465Z,98756.63
2023-07-18T23:03:18.274Z,98764.38
2023-07-18T23:05:46.195Z,98772.94
2023-07-18T23:08:15.570Z,98769.41
2023-07-18T23:10:43.276Z,98764.81
2023-07-18T23:13:11.268Z,98771.06
2023-07-18T23:15:38.937Z,98767.72
2023-07-18T23:18:06.718Z,98772.53
2023-07-18T23:20:34.593Z,98768.88
2023-07-18T23:23:03.392Z,98770.00
2023-07-18T23:25:32.517Z,98763.50
2023-07-18T23:28:00.338Z,98767.63
2023-07-18T23:30:28.028Z,98761.81
2023-07-18T23:32:55.946Z,98764.91
2023-07-18T23:35:26.617Z,98765.75
2023-07-18T23:37:54.309Z,98767.16
2023-07-18T23:40:21.969Z,98766.59
2023-07-18T23:42:51.037Z,98764.59
2023-07-18T23:45:18.997Z,98758.44
2023-07-18T23:47:47.213Z,98760.41
2023-07-18T23:50:14.935Z,98753.34
2023-07-18T23:52:42.694Z,98759.81
2023-07-18T23:55:10.532Z,98755.19
2023-07-18T23:57:38.462Z,98755.88
